Impacts METAR Board
IDs:

KJAN - Jackson/Evers Intl, MS, US

Updated at: 1300 UTC 21 Feb 2019
Potential Impact None Slight Moderate High
Time 21/01Z 21/02Z 21/03Z 21/04Z 21/05Z 21/06Z 21/07Z 21/08Z 21/09Z 21/10Z 21/11Z 21/12Z 21/13Z
Temp52 53 52 52 52 52 51 51 51 50 49 49 49
Dewpt48 47 47 47 47 47 46 46 46 47 47 46 46
Altim29.98 29.99 30.02 30.02 30.02 30.05 30.02 30.04 30.06 30.06 30.07 30.06 30.07
VIS10 10 10 10 10 10 10 10 5 8 6 10 10
CIG100 65 65 70 80 70 70 75 65 60 42 32 23
CoverBKNOVCOVCOVCOVCOVCOVCOVCOVCOVCOVCBKNOVC
FltCatVFRVFRVFRVFRVFRVFRVFRVFRMVFRVFRVFRVFRMVFR
WX----------------HZ-RARA BR-TSRAVCTS
WDir34035020360360040303003601020
WSpd5 5 6 5 4 0 5 4 3 0 8 6 5
WGst-- -- -- -- -- -- -- -- -- -- -- -- --
Raw hourly METARs
KJAN 210054Z 34005KT 10SM BKN100 11/09 A2998 RMK AO2 SLP150 T01110089 $
KJAN 210154Z 35005KT 10SM OVC065 12/08 A2999 RMK AO2 SLP154 T01170083 $
KJAN 210254Z 02006KT 10SM BKN065 OVC100 11/08 A3002 RMK AO2 SLP162 T01110083 53016 $
KJAN 210354Z 36005KT 10SM OVC070 11/08 A3002 RMK AO2 SLP165 T01110083 $
KJAN 210454Z 36004KT 10SM OVC080 11/08 A3002 RMK AO2 SLP163 T01110083 $
KJAN 210554Z 00000KT 10SM BKN070 OVC085 11/08 A3005 RMK AO2 RAB28E38 SLP175 P0000 60000 T01110083 10122 20111 402110111 53013 $
KJAN 210654Z 04005KT 10SM OVC070 11/08 A3002 RMK AO2 SLP166 T01060078 $
KJAN 210754Z 03004KT 10SM OVC075 11/08 A3004 RMK AO2 SLP173 T01060078 $
KJAN 210854Z 03003KT 5SM HZ FEW050 OVC065 11/08 A3006 RMK AO2 LTG DSNT E SLP179 T01060078 53003 $
KJAN 210954Z 00000KT 8SM -RA FEW035 BKN060 OVC100 10/08 A3006 RMK AO2 LTG DSNT SE AND S RAB05 PRESRR SLP180 P0002 T01000083 $
KJAN 211054Z 36008KT 6SM RA BR FEW008 OVC042 09/08 A3007 RMK AO2 LTG DSNT SE AND SW SLP181 P0002 T00940083 $
KJAN 211154Z 01006KT 10SM -TSRA BKN032 09/08 A3006 RMK AO2 LTG DSNT NE AND E TSE19B54 SLP180 P0002 60006 70050 T00940078 10111 20094 50001 $
KJAN 211304Z 02005KT 10SM VCTS FEW010 OVC023 09/08 A3007 RMK AO2 LTG DSNT W T00940078 $



Page loaded:  13:27 UTC  |   05:27 AM Pacific  |   06:27 AM Mountain  |   07:27 AM Central  |   08:27 AM Eastern

 

ADVISORIES

FORECASTS

FORECASTS

OBSERVATIONS

USER TOOLS

ABOUT US